KJCT/JCT METAR and TAF weather

Enter ICAO airport designator
Station Type Date Time Source
KJCT METAR 2020/07/05 02:51 UTC NOAA

KJCT 050251Z AUTO 07004KT 10SM CLR 32/14 A2991 RMK AO2 SLP086 T03170144 53017


Station Type Date Time Source
KJCT Decoded METAR 2020/07/05 02:51 UTC NOAA

KIMBLE COUNTY AIRPORT, TX, United States (KJCT) 30-31N 099-46W 523M
Jul 04, 2020 - 10:51 PM EDT / 2020.07.05 0251 UTC
Wind: from the ENE (070 degrees) at 5 MPH (4 KT):0
Visibility: 10 mile(s):0
Sky conditions: clear
Temperature: 89.1 F (31.7 C)
Dew Point: 57.9 F (14.4 C)
Relative Humidity: 35%
Pressure (altimeter): 29.91 in. Hg (1012 hPa)
Pressure tendency: 0.05 inches (1.7 hPa) higher than three hours ago
ob: KJCT 050251Z AUTO 07004KT 10SM CLR 32/14 A2991 RMK AO2 SLP086 T03170144 53017
cycle: 3

Station Type Date Time Source
KJCT TAF 2020/07/04 18:36 UTC NOAA

TAF KJCT 041733Z 0418/0518 14005KT P6SM FEW250

Example: see airport list